Time;durP1;ratioP1;P1;durP2;ratioP2;P2;SDS_P1;SDS_P2;PMS_P1;PMS_P2;Temp;Humidity;BMP_temperature;BMP_pressure;BME280_temperature;BME280_humidity;BME280_pressure;Samples;Min_cycle;Max_cycle;Signal;HPM_P1;HPM_P2
2021/10/07 00:02:13;;;;;;;21.02;12.35;;;359.30;2329.60;;;;;;4995897;28;20026;-93
2021/10/07 00:04:38;;;;;;;19.58;12.32;;;359.30;2329.60;;;;;;4995696;28;20130;-93
2021/10/07 00:07:05;;;;;;;21.40;13.02;;;384.00;2329.60;;;;;;4995344;28;20026;-90
2021/10/07 00:09:32;;;;;;;21.05;13.15;;;384.00;2329.60;;;;;;4995854;28;20035;-94
2021/10/07 00:11:58;;;;;;;20.63;12.32;;;384.00;2329.60;;;;;;4994959;28;20034;-94
2021/10/07 00:14:25;;;;;;;20.05;12.73;;;384.00;2329.60;;;;;;4995047;28;20045;-90
2021/10/07 00:16:50;;;;;;;22.38;12.80;;;384.00;2329.60;;;;;;4995006;28;20065;-92
2021/10/07 00:19:16;;;;;;;20.55;13.00;;;384.00;2329.60;;;;;;4995434;28;20220;-89
2021/10/07 00:21:43;;;;;;;21.38;13.38;;;384.00;2329.60;;;;;;4995700;28;20487;-93
2021/10/07 00:24:09;;;;;;;22.45;12.77;;;359.20;2329.60;;;;;;4998225;28;20582;-92
2021/10/07 00:26:44;;;;;;;20.17;13.65;;;384.10;2329.60;;;;;;4999247;28;20026;-90
2021/10/07 00:32:03;;;;;;;24.60;14.60;;;384.10;2329.60;;;;;;5014548;28;20045;-84
2021/10/07 00:34:42;;;;;;;26.52;16.67;;;384.00;2329.60;;;;;;5013912;28;20402;-85
2021/10/07 00:39:02;;;;;;;21.20;13.02;;;384.00;2329.60;;;;;;5014715;28;20052;-86
2021/10/07 00:40:12;;;;;;;20.63;14.88;;;359.30;2329.60;;;;;;5006861;28;20390;-93
2021/10/07 00:42:38;;;;;;;17.20;11.75;;;359.20;2329.60;;;;;;4996301;28;20271;-90
2021/10/07 00:45:05;;;;;;;17.95;12.40;;;359.20;2329.60;;;;;;4995355;28;20033;-89
2021/10/07 00:47:30;;;;;;;16.27;10.48;;;359.20;2329.60;;;;;;4995330;28;20038;-92
2021/10/07 00:49:56;;;;;;;16.50;10.20;;;359.20;2329.60;;;;;;4994816;28;20483;-92
2021/10/07 00:52:22;;;;;;;23.73;12.27;;;359.20;2329.60;;;;;;4995548;28;20030;-93
2021/10/07 00:54:50;;;;;;;19.85;12.23;;;359.20;2329.60;;;;;;4994481;28;20042;-93
2021/10/07 00:57:18;;;;;;;19.15;10.77;;;359.20;2329.60;;;;;;4994711;28;20484;-93
2021/10/07 00:59:48;;;;;;;22.83;12.23;;;359.20;2329.60;;;;;;4994736;28;20398;-93
2021/10/07 01:02:14;;;;;;;21.13;12.07;;;359.20;2329.60;;;;;;4995236;28;20027;-91
2021/10/07 01:04:40;;;;;;;19.33;11.82;;;359.30;2329.60;;;;;;4995944;28;20031;-93
2021/10/07 01:07:08;;;;;;;20.70;11.73;;;359.30;2329.60;;;;;;4994623;28;20479;-92
2021/10/07 01:09:34;;;;;;;18.95;11.48;;;384.00;2329.60;;;;;;4995656;28;20082;-93
2021/10/07 01:12:02;;;;;;;18.88;11.93;;;384.00;2329.60;;;;;;4995254;28;20026;-93
2021/10/07 01:14:53;;;;;;;22.23;12.30;;;384.00;2329.60;;;;;;4994813;28;20061;-93
2021/10/07 01:17:26;;;;;;;18.48;12.35;;;384.10;2329.60;;;;;;4996206;28;20097;-92
2021/10/07 01:19:54;;;;;;;23.98;12.50;;;384.10;2329.60;;;;;;4995005;28;20031;-92
2021/10/07 01:22:22;;;;;;;21.85;12.05;;;384.10;2329.60;;;;;;4995626;28;20532;-92
2021/10/07 01:24:48;;;;;;;19.63;12.45;;;384.10;2329.60;;;;;;4975828;28;20123;-92
2021/10/07 01:27:14;;;;;;;18.55;12.38;;;384.10;2329.60;;;;;;4975845;28;20487;-93
2021/10/07 01:29:40;;;;;;;20.65;12.55;;;359.30;2329.60;;;;;;4976312;28;20038;-92
2021/10/07 01:32:08;;;;;;;20.92;13.43;;;384.10;2329.60;;;;;;4963061;28;20027;-93
2021/10/07 01:34:35;;;;;;;20.42;13.20;;;384.10;2329.60;;;;;;4979190;28;20054;-91
2021/10/07 01:37:02;;;;;;;20.13;12.95;;;384.00;2329.60;;;;;;4963685;28;20118;-93
2021/10/07 01:39:29;;;;;;;20.50;12.57;;;384.00;2329.60;;;;;;4979161;28;20058;-92
2021/10/07 01:41:55;;;;;;;15.32;10.20;;;384.00;2329.60;;;;;;4963238;28;20027;-90
2021/10/07 01:44:24;;;;;;;18.30;10.95;;;359.30;2329.60;;;;;;4978765;28;20553;-92
2021/10/07 01:46:51;;;;;;;17.73;11.75;;;359.30;2329.60;;;;;;4979169;28;20023;-91
2021/10/07 01:49:17;;;;;;;18.63;11.43;;;359.30;2329.60;;;;;;4979138;28;20035;-92
2021/10/07 01:51:43;;;;;;;18.92;12.48;;;384.00;2329.60;;;;;;4979591;28;20098;-92
2021/10/07 01:54:09;;;;;;;21.52;12.20;;;384.00;2329.60;;;;;;4979396;28;20131;-92
2021/10/07 01:56:35;;;;;;;19.02;11.82;;;359.30;2329.60;;;;;;4979607;28;20103;-92
2021/10/07 01:59:02;;;;;;;21.35;12.48;;;359.30;2329.60;;;;;;4980227;28;20042;-91
2021/10/07 02:01:27;;;;;;;19.38;12.38;;;384.00;2329.60;;;;;;4979444;28;20479;-92
2021/10/07 02:03:53;;;;;;;20.38;14.25;;;384.00;2329.60;;;;;;4979752;28;20134;-91
2021/10/07 02:06:19;;;;;;;17.48;11.73;;;384.00;2329.60;;;;;;4978754;28;20122;-93
2021/10/07 02:08:45;;;;;;;21.52;12.43;;;384.00;2329.60;;;;;;4979100;28;20130;-91
2021/10/07 02:11:11;;;;;;;15.77;12.45;;;384.00;2329.60;;;;;;4980216;28;20027;-92
2021/10/07 02:13:37;;;;;;;21.13;11.95;;;384.00;2329.60;;;;;;4979736;28;20041;-92
2021/10/07 02:16:04;;;;;;;19.08;12.57;;;384.00;2329.60;;;;;;4979497;28;20372;-91
2021/10/07 02:18:30;;;;;;;17.83;11.50;;;384.00;2329.60;;;;;;4978997;28;20142;-92
2021/10/07 02:20:56;;;;;;;23.05;11.90;;;359.20;2329.60;;;;;;4979834;28;20058;-92
2021/10/07 02:23:22;;;;;;;14.55;11.80;;;359.10;2329.60;;;;;;4982955;28;20035;-90
2021/10/07 02:25:48;;;;;;;18.60;11.88;;;359.00;2329.60;;;;;;4980820;28;20027;-91
2021/10/07 02:28:14;;;;;;;21.05;11.18;;;359.00;2329.60;;;;;;4982603;28;20062;-92
2021/10/07 02:30:40;;;;;;;17.77;11.15;;;359.00;2329.60;;;;;;4981494;28;20054;-90
2021/10/07 02:33:07;;;;;;;18.13;11.27;;;359.00;2329.60;;;;;;4983552;28;20488;-91
2021/10/07 02:35:33;;;;;;;18.83;13.05;;;359.00;2329.60;;;;;;4986877;28;20129;-90
2021/10/07 02:37:59;;;;;;;18.33;12.48;;;359.00;2329.60;;;;;;4984839;28;20027;-91
2021/10/07 02:40:27;;;;;;;19.35;11.40;;;359.00;2329.60;;;;;;4984971;28;20034;-89
2021/10/07 02:42:53;;;;;;;16.83;11.75;;;359.00;2329.60;;;;;;4978415;28;20105;-92
2021/10/07 02:45:20;;;;;;;20.58;10.15;;;359.00;2329.60;;;;;;4978381;28;20031;-92
2021/10/07 02:47:46;;;;;;;17.13;10.70;;;359.00;2329.60;;;;;;4978638;28;20054;-93
2021/10/07 02:50:12;;;;;;;20.95;11.85;;;359.00;2329.60;;;;;;4979217;28;20023;-92
2021/10/07 02:52:38;;;;;;;22.17;12.38;;;359.00;2329.60;;;;;;4980445;28;20046;-93
2021/10/07 02:55:05;;;;;;;16.83;10.73;;;359.10;2329.60;;;;;;4981280;28;20031;-91
2021/10/07 02:57:30;;;;;;;23.77;13.20;;;359.10;2329.60;;;;;;4981420;28;20027;-91
2021/10/07 02:59:56;;;;;;;21.92;13.13;;;359.10;2329.60;;;;;;4979892;28;20097;-92
2021/10/07 03:02:22;;;;;;;22.00;15.57;;;359.10;2329.60;;;;;;4977907;28;20023;-92
2021/10/07 03:04:52;;;;;;;21.90;14.85;;;359.10;2329.60;;;;;;4977597;28;20039;-92
2021/10/07 03:07:18;;;;;;;29.30;17.35;;;359.10;2329.60;;;;;;4976911;28;20030;-92
2021/10/07 03:09:44;;;;;;;20.30;12.60;;;359.00;2329.60;;;;;;4976638;28;20050;-92
2021/10/07 03:12:10;;;;;;;25.27;14.32;;;359.00;2329.60;;;;;;4978307;28;20471;-92
2021/10/07 03:14:39;;;;;;;28.92;16.88;;;359.00;2329.60;;;;;;4977647;28;20501;-92
2021/10/07 03:17:06;;;;;;;24.67;15.70;;;359.00;2329.60;;;;;;4976576;28;20018;-91
2021/10/07 03:19:32;;;;;;;24.92;14.52;;;359.20;2329.60;;;;;;4983598;28;20030;-93
2021/10/07 03:21:58;;;;;;;21.80;11.35;;;359.10;2329.60;;;;;;4995667;28;20118;-92
2021/10/07 03:24:24;;;;;;;19.10;11.10;;;359.10;2329.60;;;;;;4995898;28;20470;-91
2021/10/07 03:26:50;;;;;;;15.27;10.95;;;359.10;2329.60;;;;;;4995591;28;20030;-92
2021/10/07 03:29:15;;;;;;;17.00;11.43;;;359.10;2329.60;;;;;;4996105;28;20541;-92
2021/10/07 03:31:41;;;;;;;17.30;11.20;;;359.10;2329.60;;;;;;4983755;28;20031;-92
2021/10/07 03:34:07;;;;;;;20.40;11.55;;;359.10;2329.60;;;;;;4976447;28;20050;-92
2021/10/07 03:36:32;;;;;;;18.02;11.30;;;359.10;2329.60;;;;;;4976480;28;20082;-92
2021/10/07 03:38:58;;;;;;;17.65;10.13;;;359.30;2329.60;;;;;;4976185;28;20113;-90
2021/10/07 03:41:24;;;;;;;20.35;12.20;;;359.30;2329.60;;;;;;4975805;28;20046;-89
2021/10/07 03:43:50;;;;;;;20.52;12.57;;;359.30;2329.60;;;;;;4979089;28;20054;-90
2021/10/07 03:46:17;;;;;;;22.23;14.25;;;359.30;2329.60;;;;;;4987275;28;20038;-91
2021/10/07 03:48:44;;;;;;;18.65;11.75;;;359.30;2329.60;;;;;;4989737;28;20027;-87
2021/10/07 03:51:11;;;;;;;18.10;11.15;;;359.30;2329.60;;;;;;4991200;28;20029;-91
2021/10/07 03:53:37;;;;;;;17.55;10.32;;;359.30;2329.60;;;;;;4976525;28;20137;-92
2021/10/07 03:56:04;;;;;;;15.88;10.05;;;359.30;2329.60;;;;;;4985331;28;20065;-92
2021/10/07 03:58:29;;;;;;;17.55;11.00;;;359.30;2329.60;;;;;;4995604;28;20129;-91
2021/10/07 04:00:55;;;;;;;17.13;9.50;;;359.30;2329.60;;;;;;4995783;28;20054;-91
2021/10/07 04:03:21;;;;;;;14.35;9.23;;;359.30;2329.60;;;;;;4996590;28;20113;-91
2021/10/07 04:05:47;;;;;;;21.67;10.73;;;359.30;2329.60;;;;;;4997016;28;20467;-91
2021/10/07 04:08:14;;;;;;;15.02;10.13;;;359.20;2329.60;;;;;;4996954;28;20027;-90
2021/10/07 04:10:40;;;;;;;15.32;9.15;;;359.20;2329.60;;;;;;4998108;28;20117;-92
2021/10/07 04:13:07;;;;;;;16.50;10.88;;;359.20;2329.60;;;;;;4989473;28;20038;-84
2021/10/07 04:15:33;;;;;;;13.43;9.18;;;359.20;2329.60;;;;;;5018204;28;20014;-86
2021/10/07 04:17:59;;;;;;;14.43;9.70;;;359.20;2329.60;;;;;;5018865;28;20017;-89
2021/10/07 04:20:25;;;;;;;17.33;11.27;;;359.20;2329.60;;;;;;5018292;28;20081;-84
2021/10/07 04:22:51;;;;;;;14.32;10.00;;;359.20;2329.60;;;;;;5018207;28;20006;-92
2021/10/07 04:25:17;;;;;;;14.25;9.73;;;359.20;2329.60;;;;;;5018352;28;20025;-84
2021/10/07 04:27:43;;;;;;;17.33;11.15;;;359.20;2329.60;;;;;;5019049;28;20034;-85
2021/10/07 04:30:10;;;;;;;16.10;9.65;;;359.20;2329.60;;;;;;5017882;28;20014;-88
2021/10/07 04:32:36;;;;;;;16.73;10.63;;;359.30;2329.60;;;;;;5018177;28;20086;-83
2021/10/07 04:35:06;;;;;;;15.60;10.40;;;359.30;2329.60;;;;;;5010339;28;20061;-88
2021/10/07 04:37:32;;;;;;;17.25;10.45;;;359.30;2329.60;;;;;;5014406;28;20034;-91
2021/10/07 04:39:58;;;;;;;15.15;9.70;;;384.00;2329.60;;;;;;5015269;28;20053;-89
2021/10/07 04:42:24;;;;;;;16.90;11.48;;;384.10;2329.60;;;;;;5012408;28;20031;-85
2021/10/07 04:44:50;;;;;;;16.00;10.85;;;384.10;2329.60;;;;;;5007587;28;20021;-86
2021/10/07 04:47:15;;;;;;;18.90;12.43;;;384.10;2329.60;;;;;;4997256;28;20103;-89
2021/10/07 04:49:41;;;;;;;18.55;12.13;;;384.10;2329.60;;;;;;4996925;28;20022;-83
2021/10/07 04:52:07;;;;;;;16.45;10.80;;;384.10;2329.60;;;;;;5014428;28;20073;-89
2021/10/07 04:54:33;;;;;;;16.20;10.48;;;384.10;2329.60;;;;;;4999772;28;20504;-91
2021/10/07 04:56:58;;;;;;;18.67;12.07;;;384.10;2329.60;;;;;;4999359;28;20045;-92
2021/10/07 04:59:24;;;;;;;16.88;10.90;;;384.10;2329.60;;;;;;4997088;28;20267;-92
2021/10/07 05:01:50;;;;;;;17.30;10.38;;;384.10;2329.60;;;;;;4997164;28;20081;-91
2021/10/07 05:04:16;;;;;;;16.27;10.82;;;384.10;2329.60;;;;;;4995381;28;20483;-92
2021/10/07 05:06:42;;;;;;;21.80;11.88;;;384.10;2329.60;;;;;;4999324;28;20026;-91
2021/10/07 05:09:07;;;;;;;22.42;12.02;;;384.10;2329.60;;;;;;4998446;28;20046;-92
2021/10/07 05:11:33;;;;;;;15.63;9.55;;;384.20;2329.60;;;;;;4998753;28;20027;-90
2021/10/07 05:13:59;;;;;;;17.65;10.07;;;384.20;2329.60;;;;;;4998229;28;20042;-91
2021/10/07 05:16:25;;;;;;;24.13;12.32;;;384.20;2329.60;;;;;;4999410;28;20065;-90
2021/10/07 05:18:50;;;;;;;17.23;10.75;;;384.20;2329.60;;;;;;4997710;28;20049;-80
2021/10/07 05:21:16;;;;;;;19.27;10.07;;;384.20;2329.60;;;;;;5002821;28;20401;-89
2021/10/07 05:23:42;;;;;;;14.52;9.15;;;384.20;2329.60;;;;;;4998857;28;20101;-84
2021/10/07 05:26:08;;;;;;;16.17;10.05;;;384.20;2329.60;;;;;;4993745;28;20031;-81
2021/10/07 05:29:02;;;;;;;16.73;10.23;;;384.20;2329.60;;;;;;4996732;28;20426;-81
2021/10/07 05:31:28;;;;;;;16.08;9.77;;;384.30;2329.60;;;;;;4997079;28;20048;-84
2021/10/07 05:33:54;;;;;;;16.42;11.77;;;384.20;2329.60;;;;;;4997497;28;20141;-90
2021/10/07 05:36:19;;;;;;;21.95;11.60;;;384.20;2329.60;;;;;;4997321;28;20089;-92
2021/10/07 05:38:45;;;;;;;15.38;9.77;;;384.20;2329.60;;;;;;4997281;28;20039;-88
2021/10/07 05:41:11;;;;;;;15.68;9.80;;;384.10;2329.60;;;;;;4997548;28;20109;-91
2021/10/07 05:43:37;;;;;;;17.45;9.50;;;384.10;2329.60;;;;;;4997600;28;20454;-87
2021/10/07 05:46:10;;;;;;;14.63;9.05;;;384.10;2329.60;;;;;;4997077;28;20447;-90
2021/10/07 05:48:36;;;;;;;18.27;9.80;;;384.10;2329.60;;;;;;4996362;28;20049;-88
2021/10/07 05:51:03;;;;;;;20.63;10.20;;;384.20;2329.60;;;;;;4997852;28;20027;-81
2021/10/07 05:53:29;;;;;;;25.98;12.65;;;384.10;2329.60;;;;;;4997339;28;20096;-89
2021/10/07 05:55:55;;;;;;;28.33;14.77;;;384.20;2329.60;;;;;;4997618;28;20130;-87
2021/10/07 05:58:21;;;;;;;17.33;11.13;;;384.20;2329.60;;;;;;4996712;28;20026;-85
2021/10/07 06:00:47;;;;;;;18.33;11.65;;;384.20;2329.60;;;;;;4996625;28;20534;-89
2021/10/07 06:03:12;;;;;;;20.92;11.43;;;384.20;2329.60;;;;;;4996346;28;20027;-84
2021/10/07 06:05:39;;;;;;;22.08;13.05;;;384.20;2329.60;;;;;;4995600;28;20042;-86
2021/10/07 06:08:06;;;;;;;20.38;10.73;;;384.20;2329.60;;;;;;4995646;28;20034;-88
2021/10/07 06:10:32;;;;;;;16.45;9.77;;;384.20;2329.60;;;;;;4995442;28;20042;-82
2021/10/07 06:12:58;;;;;;;16.25;10.80;;;384.20;2329.60;;;;;;4995533;28;20465;-82
2021/10/07 06:15:26;;;;;;;15.55;9.73;;;384.20;2329.60;;;;;;4994910;28;20081;-81
2021/10/07 06:17:53;;;;;;;17.90;10.63;;;384.20;2329.60;;;;;;4996435;28;20039;-83
2021/10/07 06:20:30;;;;;;;16.83;10.27;;;384.30;2329.60;;;;;;4995775;28;20117;-81
2021/10/07 06:22:57;;;;;;;18.05;9.52;;;384.20;2329.60;;;;;;4994506;28;20049;-87
2021/10/07 06:25:24;;;;;;;15.07;10.20;;;384.20;2329.60;;;;;;4996401;28;20471;-84
2021/10/07 06:27:50;;;;;;;16.48;9.57;;;384.20;2329.60;;;;;;4995930;28;20561;-88
2021/10/07 06:30:17;;;;;;;17.45;8.80;;;384.20;2329.60;;;;;;4994126;28;20026;-83
2021/10/07 06:32:44;;;;;;;14.13;9.50;;;384.20;2329.60;;;;;;4993421;28;20447;-83
2021/10/07 06:35:11;;;;;;;23.02;9.93;;;384.20;2329.60;;;;;;4993317;28;20053;-82
2021/10/07 06:37:37;;;;;;;16.00;9.57;;;384.20;2329.60;;;;;;4993561;28;20165;-83
2021/10/07 06:40:04;;;;;;;18.45;9.98;;;384.20;2329.60;;;;;;4993433;28;20134;-90
2021/10/07 06:42:30;;;;;;;18.42;10.45;;;384.30;2329.60;;;;;;4993173;28;20109;-83
2021/10/07 06:44:56;;;;;;;19.17;10.52;;;384.30;2329.60;;;;;;4992430;28;20057;-82
2021/10/07 06:47:22;;;;;;;24.33;13.30;;;384.30;2329.60;;;;;;4993225;28;20038;-81
2021/10/07 06:49:48;;;;;;;17.80;10.40;;;384.30;2329.60;;;;;;4994169;28;20033;-89
2021/10/07 06:52:15;;;;;;;16.75;9.82;;;384.30;2329.60;;;;;;4995162;28;20034;-85
2021/10/07 06:54:43;;;;;;;14.98;9.73;;;384.30;2329.60;;;;;;4992170;28;20038;-83
2021/10/07 06:57:09;;;;;;;15.15;9.52;;;384.30;2329.60;;;;;;4975642;28;20045;-84
2021/10/07 06:59:36;;;;;;;21.75;12.00;;;384.30;2329.60;;;;;;4990822;28;20156;-82
2021/10/07 07:02:02;;;;;;;12.57;9.35;;;384.30;2329.60;;;;;;4994047;28;20053;-82
2021/10/07 07:04:28;;;;;;;17.45;10.13;;;384.30;2329.60;;;;;;4993906;28;20030;-88
2021/10/07 07:06:56;;;;;;;15.98;10.77;;;384.30;2329.60;;;;;;4994787;28;20031;-88
2021/10/07 07:09:21;;;;;;;19.42;10.73;;;384.30;2329.60;;;;;;4995391;28;20033;-83
2021/10/07 07:11:47;;;;;;;19.45;9.93;;;384.30;2329.60;;;;;;4995356;28;20030;-84
2021/10/07 07:14:13;;;;;;;17.42;9.35;;;384.40;2329.60;;;;;;4994820;28;20074;-81
2021/10/07 07:16:38;;;;;;;16.80;9.02;;;384.30;2329.60;;;;;;4995021;28;20026;-83
2021/10/07 07:19:04;;;;;;;14.38;10.30;;;384.30;2329.60;;;;;;4995493;28;20570;-88
2021/10/07 07:21:33;;;;;;;14.55;9.50;;;384.40;2329.60;;;;;;4996639;28;20026;-87
2021/10/07 07:24:00;;;;;;;18.70;9.25;;;384.40;2329.60;;;;;;4994870;28;20030;-82
2021/10/07 07:26:27;;;;;;;13.05;7.22;;;384.40;2329.60;;;;;;4994592;28;20069;-82
2021/10/07 07:28:54;;;;;;;10.43;6.63;;;384.40;2329.60;;;;;;4994172;28;20077;-83
2021/10/07 07:31:21;;;;;;;11.65;8.68;;;384.40;2329.60;;;;;;4994984;28;20058;-84
2021/10/07 07:33:47;;;;;;;19.05;9.52;;;384.30;2329.60;;;;;;4994755;28;20053;-84
2021/10/07 07:36:16;;;;;;;17.67;9.38;;;384.40;2329.60;;;;;;4994952;28;20466;-83
2021/10/07 07:38:43;;;;;;;14.23;8.80;;;384.40;2329.60;;;;;;4994763;28;20035;-83
2021/10/07 07:41:13;;;;;;;15.05;7.90;;;384.40;2329.60;;;;;;4995182;28;20034;-83
2021/10/07 07:43:40;;;;;;;11.35;7.70;;;384.30;2329.60;;;;;;4994744;28;20035;-84
2021/10/07 07:46:06;;;;;;;16.23;8.40;;;384.30;2329.60;;;;;;4994982;28;20034;-84
2021/10/07 07:48:32;;;;;;;13.38;7.60;;;384.30;2329.60;;;;;;4994992;28;20048;-83
2021/10/07 07:50:58;;;;;;;10.68;8.07;;;384.30;2329.60;;;;;;4994708;28;20097;-89
2021/10/07 07:53:24;;;;;;;13.93;8.52;;;384.30;2329.60;;;;;;4994637;28;20038;-85
2021/10/07 07:56:00;;;;;;;10.93;7.65;;;384.30;2329.60;;;;;;4994987;28;20033;-85
2021/10/07 07:58:26;;;;;;;13.93;7.25;;;384.30;2329.60;;;;;;4994278;28;20084;-86
2021/10/07 08:00:52;;;;;;;15.98;9.10;;;384.30;2329.60;;;;;;4995047;28;20022;-85
2021/10/07 08:03:18;;;;;;;12.70;8.13;;;384.30;2329.60;;;;;;4994388;28;20218;-86
2021/10/07 08:05:44;;;;;;;13.55;9.40;;;384.40;2329.60;;;;;;4995102;28;20022;-85
2021/10/07 08:08:10;;;;;;;14.25;7.82;;;384.20;2329.60;;;;;;4994298;28;20030;-86
2021/10/07 08:10:36;;;;;;;10.73;7.35;;;384.10;2329.60;;;;;;4995010;28;20053;-86
2021/10/07 08:13:02;;;;;;;16.50;8.93;;;384.10;2329.60;;;;;;4994826;28;20026;-84
2021/10/07 08:15:31;;;;;;;10.52;7.53;;;384.00;2329.60;;;;;;4994092;28;20027;-86
2021/10/07 08:17:57;;;;;;;12.30;8.77;;;359.30;2329.60;;;;;;4994725;28;20054;-85
2021/10/07 08:20:23;;;;;;;15.30;9.95;;;384.00;2329.60;;;;;;4994513;28;20026;-84
2021/10/07 08:22:49;;;;;;;11.98;7.55;;;359.30;2329.60;;;;;;4994827;28;20053;-85
2021/10/07 08:25:17;;;;;;;14.98;8.00;;;359.30;2329.60;;;;;;4977439;28;20085;-85
2021/10/07 08:27:46;;;;;;;13.38;8.45;;;359.30;2329.60;;;;;;4994118;28;20108;-83
2021/10/07 08:30:15;;;;;;;15.05;9.55;;;359.30;2329.60;;;;;;4994179;28;20386;-87
2021/10/07 08:32:41;;;;;;;15.05;8.90;;;359.30;2329.60;;;;;;4995503;28;20042;-84
2021/10/07 08:35:08;;;;;;;14.98;8.48;;;359.30;2329.60;;;;;;4995124;28;20073;-85
2021/10/07 08:37:34;;;;;;;15.75;9.48;;;359.30;2329.60;;;;;;4994173;28;20080;-86
2021/10/07 08:40:02;;;;;;;13.55;8.98;;;359.30;2329.60;;;;;;4994167;28;20050;-87
2021/10/07 08:42:28;;;;;;;15.07;8.13;;;359.20;2329.60;;;;;;4994447;28;20030;-86
2021/10/07 08:44:55;;;;;;;14.73;9.45;;;359.30;2329.60;;;;;;4995175;28;20022;-84
2021/10/07 08:47:22;;;;;;;23.30;14.02;;;359.30;2329.60;;;;;;4994139;28;20045;-84
2021/10/07 08:49:54;;;;;;;23.98;11.80;;;359.30;2329.60;;;;;;4993758;28;20026;-85
2021/10/07 08:52:20;;;;;;;18.83;10.18;;;359.20;2329.60;;;;;;4994432;28;20026;-89
2021/10/07 08:54:47;;;;;;;17.30;9.57;;;359.20;2329.60;;;;;;4994044;28;20130;-89
2021/10/07 08:57:14;;;;;;;15.90;10.13;;;384.00;2329.60;;;;;;4994349;28;20090;-86
2021/10/07 08:59:40;;;;;;;18.25;12.02;;;359.20;2329.60;;;;;;4994522;28;20031;-90
2021/10/07 09:02:09;;;;;;;13.13;8.63;;;384.00;2329.60;;;;;;4993936;28;20080;-87
2021/10/07 09:04:42;;;;;;;15.82;10.57;;;359.20;2329.60;;;;;;4994207;28;20035;-88
2021/10/07 09:07:11;;;;;;;;;;;359.20;2329.60;;;;;;4994447;28;20479;-86
2021/10/07 09:09:43;;;;;;;14.60;10.45;;;359.20;2329.60;;;;;;4994419;28;20135;-84
2021/10/07 09:12:28;;;;;;;13.93;9.30;;;359.10;2329.60;;;;;;4994211;28;20053;-88
2021/10/07 09:14:58;;;;;;;14.60;9.38;;;359.10;2329.60;;;;;;4994168;28;20038;-89
2021/10/07 09:17:25;;;;;;;15.50;8.70;;;359.20;2329.60;;;;;;4994063;28;20026;-91
2021/10/07 09:19:51;;;;;;;15.35;8.88;;;359.10;2329.60;;;;;;4995017;28;20173;-90
2021/10/07 09:22:36;;;;;;;16.63;9.73;;;359.10;2329.60;;;;;;5002739;28;20058;-87
2021/10/07 09:25:05;;;;;;;17.02;9.75;;;359.10;2329.60;;;;;;5010908;28;20061;-88
2021/10/07 09:27:36;;;;;;;22.25;11.82;;;359.10;2329.60;;;;;;4987175;28;20061;-89
2021/10/07 09:30:19;;;;;;;17.73;12.20;;;359.00;2329.60;;;;;;5010010;28;20030;-84
2021/10/07 09:32:51;;;;;;;16.95;10.15;;;359.00;2329.60;;;;;;5011304;28;20041;-84
2021/10/07 09:35:20;;;;;;;16.23;10.27;;;359.00;2329.60;;;;;;5010821;28;20117;-90
2021/10/07 09:37:59;;;;;;;18.45;11.30;;;359.00;2329.60;;;;;;5014058;28;20014;-84
2021/10/07 09:40:27;;;;;;;15.98;9.90;;;359.10;2329.60;;;;;;5009748;28;20018;-91
2021/10/07 09:43:03;;;;;;;15.80;10.05;;;359.10;2329.60;;;;;;5006842;28;20026;-90
2021/10/07 09:45:33;;;;;;;13.93;9.38;;;359.10;2329.60;;;;;;5005281;28;20032;-88
2021/10/07 09:48:04;;;;;;;15.55;9.57;;;359.30;2329.60;;;;;;5007085;28;20034;-91
2021/10/07 09:50:31;;;;;;;15.88;10.30;;;359.00;2329.60;;;;;;5006792;28;20041;-89
2021/10/07 09:53:14;;;;;;;19.25;10.27;;;358.90;2329.60;;;;;;5009523;28;20039;-91
2021/10/07 09:55:50;;;;;;;17.45;10.10;;;358.90;2329.60;;;;;;5006684;28;20034;-92
2021/10/07 09:58:24;;;;;;;21.02;11.85;;;358.90;2329.60;;;;;;5003454;28;20057;-85
2021/10/07 10:00:52;;;;;;;18.95;11.68;;;358.80;2329.60;;;;;;4999600;28;20033;-91
2021/10/07 10:03:23;;;;;;;20.63;12.45;;;358.70;2329.60;;;;;;5000110;28;20025;-92
2021/10/07 10:05:50;;;;;;;17.73;12.63;;;358.70;2329.60;;;;;;5001442;28;20030;-85
2021/10/07 10:08:18;;;;;;;24.85;17.33;;;358.70;2329.60;;;;;;5003056;28;20023;-88
2021/10/07 10:10:45;;;;;;;26.33;16.90;;;358.60;2329.60;;;;;;5000745;28;20045;-89
2021/10/07 10:13:13;;;;;;;26.77;17.85;;;358.50;2329.60;;;;;;5002113;28;20061;-91
2021/10/07 10:15:39;;;;;;;21.00;14.00;;;358.50;2329.60;;;;;;5001229;28;20502;-86
2021/10/07 10:18:13;;;;;;;20.75;13.75;;;333.70;2329.60;;;;;;4998820;28;20034;-90
2021/10/07 10:20:52;;;;;;;;;;;358.50;2329.60;;;;;;4998590;28;20133;-89
2021/10/07 10:23:23;;;;;;;19.95;11.45;;;358.50;2329.60;;;;;;4997456;28;19906;-91
2021/10/07 10:25:56;;;;;;;23.02;13.93;;;358.40;2329.60;;;;;;4998711;28;20102;-92
2021/10/07 10:28:49;;;;;;;;;;;358.40;2329.60;;;;;;4997821;28;20513;-87
2021/10/07 10:31:33;;;;;;;18.10;11.02;;;358.50;2329.60;;;;;;4997655;28;19906;-91
2021/10/07 10:34:14;;;;;;;16.52;11.68;;;358.40;2329.60;;;;;;4998046;28;20150;-90
2021/10/07 10:36:51;;;;;;;18.38;11.93;;;358.40;2329.60;;;;;;4997352;28;20046;-82
2021/10/07 10:39:39;;;;;;;19.90;11.85;;;358.40;2329.60;;;;;;4996572;28;20378;-79
2021/10/07 10:42:24;;;;;;;19.00;10.80;;;358.40;2329.60;;;;;;4994829;28;20027;-80
2021/10/07 10:44:52;;;;;;;16.05;9.98;;;358.40;2329.60;;;;;;4995379;28;20045;-81
2021/10/07 10:47:23;;;;;;;22.23;12.93;;;358.40;2329.60;;;;;;4995249;28;20057;-80
2021/10/07 10:49:53;;;;;;;16.40;10.52;;;358.50;2329.60;;;;;;4995294;28;20033;-82
2021/10/07 10:52:21;;;;;;;22.73;11.35;;;358.50;2329.60;;;;;;4995832;28;20459;-83
2021/10/07 10:54:56;;;;;;;21.88;11.40;;;358.50;2329.60;;;;;;4995914;28;20062;-84
2021/10/07 10:57:41;;;;;;;17.83;10.18;;;358.50;2329.60;;;;;;4996280;28;20073;-85
2021/10/07 11:00:13;;;;;;;16.88;10.52;;;358.40;2329.60;;;;;;4992868;28;20043;-83
2021/10/07 11:02:54;;;;;;;17.65;8.98;;;358.40;2329.60;;;;;;4993874;28;20482;-83
2021/10/07 11:05:20;;;;;;;17.90;10.05;;;358.40;2329.60;;;;;;4995152;28;20145;-86
2021/10/07 11:08:06;;;;;;;17.67;10.90;;;358.40;2329.60;;;;;;4995570;28;20434;-81
2021/10/07 11:10:36;;;;;;;14.73;8.93;;;358.50;2329.60;;;;;;4995959;28;20120;-82
2021/10/07 11:13:02;;;;;;;15.20;9.55;;;358.50;2329.60;;;;;;4996730;28;20037;-82
2021/10/07 11:15:29;;;;;;;19.50;11.45;;;358.50;2329.60;;;;;;5009288;28;20038;-80
2021/10/07 11:17:57;;;;;;;20.08;11.20;;;358.40;2329.60;;;;;;5010805;28;20912;-82
2021/10/07 11:20:32;;;;;;;14.75;8.93;;;358.40;2329.60;;;;;;5011975;28;20026;-81
2021/10/07 11:23:11;;;;;;;17.40;9.52;;;358.40;2329.60;;;;;;5009339;28;20050;-82
2021/10/07 11:25:40;;;;;;;16.23;8.98;;;358.40;2329.60;;;;;;5007197;28;20037;-81
2021/10/07 11:28:07;;;;;;;14.35;10.20;;;358.40;2329.60;;;;;;5010192;28;20026;-80
2021/10/07 11:30:36;;;;;;;17.52;9.57;;;358.40;2329.60;;;;;;5010227;28;20023;-80
2021/10/07 11:33:03;;;;;;;14.85;9.73;;;358.40;2329.60;;;;;;5007513;28;20058;-80
2021/10/07 11:35:31;;;;;;;14.05;8.07;;;358.50;2329.60;;;;;;5008137;28;20042;-79
2021/10/07 11:38:01;;;;;;;14.13;8.32;;;358.50;2329.60;;;;;;4984716;28;20046;-82
2021/10/07 11:40:44;;;;;;;18.23;10.50;;;358.50;2329.60;;;;;;4994744;28;20478;-82
2021/10/07 11:43:21;;;;;;;15.52;9.57;;;358.50;2329.60;;;;;;4994076;28;20033;-81
2021/10/07 11:45:55;;;;;;;15.25;9.25;;;358.50;2329.60;;;;;;4994679;28;20056;-82
2021/10/07 11:48:22;;;;;;;14.15;7.97;;;358.50;2329.60;;;;;;4994265;28;20057;-80
2021/10/07 11:50:56;;;;;;;17.42;9.30;;;358.50;2329.60;;;;;;4994474;28;20036;-83
2021/10/07 11:53:36;;;;;;;18.42;9.32;;;358.50;2329.60;;;;;;4994680;28;20038;-82
2021/10/07 11:56:26;;;;;;;14.68;9.25;;;358.50;2329.60;;;;;;4994747;28;20038;-83
2021/10/07 11:58:57;;;;;;;15.38;8.55;;;358.50;2329.60;;;;;;4993897;28;20030;-82
2021/10/07 12:01:28;;;;;;;13.85;8.93;;;358.50;2329.60;;;;;;4995223;28;20022;-82
2021/10/07 12:03:58;;;;;;;17.17;9.00;;;358.60;2329.60;;;;;;4993834;28;20036;-81
2021/10/07 12:06:25;;;;;;;15.30;9.30;;;358.60;2329.60;;;;;;4994030;28;20081;-82
2021/10/07 12:08:51;;;;;;;15.95;9.88;;;358.60;2329.60;;;;;;4993827;28;20073;-82
2021/10/07 12:11:19;;;;;;;18.08;10.40;;;358.60;2329.60;;;;;;4993786;28;20050;-82
2021/10/07 12:13:50;;;;;;;19.80;11.05;;;358.60;2329.60;;;;;;4993282;28;20044;-81